createdAt,value
2022-11-10T00:01:15.227Z,3.23
2022-11-10T00:04:01.858Z,3.27
2022-11-10T00:06:49.779Z,2.90
2022-11-10T00:09:36.187Z,2.70
2022-11-10T00:12:23.522Z,2.93
2022-11-10T00:15:30.337Z,2.93
2022-11-10T00:18:16.800Z,2.90
2022-11-10T00:21:05.409Z,2.53
2022-11-10T00:23:53.382Z,2.60
2022-11-10T00:26:40.472Z,2.90
2022-11-10T00:29:26.709Z,2.70
2022-11-10T00:32:13.326Z,2.70
2022-11-10T00:34:59.880Z,2.20
2022-11-10T00:37:46.595Z,1.97
2022-11-10T00:40:34.642Z,2.10
2022-11-10T00:43:26.173Z,2.33
2022-11-10T00:46:13.242Z,2.13
2022-11-10T00:49:02.496Z,2.17
2022-11-10T00:51:50.603Z,2.00
2022-11-10T00:54:36.832Z,1.90
2022-11-10T00:57:24.473Z,1.70
2022-11-10T01:00:11.502Z,2.00
2022-11-10T01:02:59.811Z,1.70
2022-11-10T01:05:46.510Z,1.80
2022-11-10T01:08:32.981Z,1.80
2022-11-10T01:11:22.630Z,1.87
2022-11-10T01:14:10.417Z,1.33
2022-11-10T01:16:56.635Z,1.40
2022-11-10T01:19:43.197Z,1.57
2022-11-10T01:22:29.515Z,1.20
2022-11-10T01:25:16.105Z,1.20
2022-11-10T01:28:02.270Z,1.07
2022-11-10T01:30:57.309Z,1.10
2022-11-10T01:33:43.925Z,1.13
2022-11-10T01:36:30.421Z,1.23
2022-11-10T01:39:16.553Z,1.17
2022-11-10T01:42:02.975Z,1.30
2022-11-10T01:45:23.051Z,1.10
2022-11-10T01:48:14.619Z,1.07
2022-11-10T01:51:05.274Z,1.70
2022-11-10T01:53:58.439Z,1.20
2022-11-10T01:56:50.011Z,1.27
2022-11-10T01:59:41.188Z,1.23
2022-11-10T02:02:31.896Z,1.00
2022-11-10T02:05:20.596Z,1.20
2022-11-10T02:08:08.249Z,1.10
2022-11-10T02:10:54.991Z,1.23
2022-11-10T02:13:41.564Z,1.00
2022-11-10T02:16:28.274Z,0.97
2022-11-10T02:19:16.901Z,0.90
2022-11-10T02:22:04.815Z,1.20
2022-11-10T02:24:51.999Z,0.77
2022-11-10T02:27:38.296Z,1.10
2022-11-10T02:30:27.679Z,0.93
2022-11-10T02:33:17.849Z,0.97
2022-11-10T02:36:05.000Z,1.20
2022-11-10T02:38:52.787Z,1.10
2022-11-10T02:41:39.834Z,1.20
2022-11-10T02:44:32.609Z,1.20
2022-11-10T02:47:19.500Z,0.90
2022-11-10T02:50:06.544Z,1.10
2022-11-10T02:52:53.123Z,1.20
2022-11-10T02:55:40.892Z,1.30
2022-11-10T02:58:27.785Z,1.10
2022-11-10T03:01:14.435Z,1.33
2022-11-10T03:04:00.880Z,1.80
2022-11-10T03:06:47.661Z,1.50
2022-11-10T03:09:33.902Z,1.50
2022-11-10T03:12:21.904Z,1.90
2022-11-10T03:15:09.308Z,1.53
2022-11-10T03:17:56.730Z,2.00
2022-11-10T03:20:43.076Z,2.27
2022-11-10T03:23:29.666Z,2.13
2022-11-10T03:26:15.995Z,2.43
2022-11-10T03:29:03.739Z,2.53
2022-11-10T03:31:50.640Z,2.37
2022-11-10T03:34:36.934Z,2.60
2022-11-10T03:37:23.338Z,2.53
2022-11-10T03:40:11.112Z,2.60
2022-11-10T03:42:57.541Z,2.40
2022-11-10T03:45:45.796Z,2.40
2022-11-10T03:48:31.999Z,2.10
2022-11-10T03:51:18.450Z,2.27
2022-11-10T03:54:04.934Z,2.33
2022-11-10T03:56:51.506Z,1.90
2022-11-10T03:59:38.059Z,1.77
2022-11-10T04:02:25.676Z,2.20
2022-11-10T04:05:32.076Z,2.37
2022-11-10T04:08:39.014Z,2.20
2022-11-10T04:11:43.726Z,2.60
2022-11-10T04:14:55.837Z,2.20
2022-11-10T04:17:50.182Z,2.30
2022-11-10T04:20:36.443Z,2.20
2022-11-10T04:23:34.681Z,2.30
2022-11-10T04:26:30.059Z,2.20
2022-11-10T04:29:19.348Z,2.17
2022-11-10T04:32:06.198Z,2.00
2022-11-10T04:34:53.927Z,2.13
2022-11-10T04:37:40.728Z,2.00
2022-11-10T04:40:27.457Z,2.27
2022-11-10T04:43:14.090Z,2.03
2022-11-10T04:46:01.177Z,1.60
2022-11-10T04:48:47.367Z,2.03
2022-11-10T04:51:37.845Z,1.70
2022-11-10T04:54:24.555Z,2.00
2022-11-10T04:57:11.128Z,2.10
2022-11-10T04:59:57.641Z,1.77
2022-11-10T05:02:44.202Z,2.07
2022-11-10T05:05:31.130Z,2.37
2022-11-10T05:08:19.156Z,1.80
2022-11-10T05:11:12.399Z,2.10
2022-11-10T05:13:58.910Z,2.00
2022-11-10T05:16:45.338Z,2.10
2022-11-10T05:19:32.044Z,2.00
2022-11-10T05:22:18.522Z,2.63
2022-11-10T05:25:07.260Z,2.97
2022-11-10T05:27:53.354Z,2.70
2022-11-10T05:30:40.494Z,2.80
2022-11-10T05:33:27.405Z,2.60
2022-11-10T05:36:14.019Z,2.57
2022-11-10T05:39:00.641Z,7.50
2022-11-10T05:41:48.554Z,4.00
2022-11-10T05:44:34.751Z,2.33
2022-11-10T05:47:21.092Z,3.03
2022-11-10T05:50:09.245Z,2.67
2022-11-10T05:52:56.720Z,2.10
2022-11-10T05:55:43.097Z,3.70
2022-11-10T05:58:31.072Z,2.50
2022-11-10T06:01:18.026Z,2.07
2022-11-10T06:04:04.335Z,2.10
2022-11-10T06:06:50.993Z,2.20
2022-11-10T06:09:38.022Z,2.20
2022-11-10T06:12:25.015Z,2.60
2022-11-10T06:15:13.607Z,2.70
2022-11-10T06:18:00.257Z,3.30
2022-11-10T06:20:47.369Z,3.13
2022-11-10T06:23:33.925Z,2.57
2022-11-10T06:26:20.225Z,2.27
2022-11-10T06:29:06.795Z,1.80
2022-11-10T06:31:54.375Z,2.03
2022-11-10T06:34:41.160Z,1.80
2022-11-10T06:37:27.626Z,1.90
2022-11-10T06:40:14.947Z,2.13
2022-11-10T06:43:01.506Z,2.47
2022-11-10T06:45:48.087Z,2.10
2022-11-10T06:48:36.388Z,2.00
2022-11-10T06:51:23.164Z,2.37
2022-11-10T06:54:09.866Z,7.00
2022-11-10T06:56:56.310Z,4.23
2022-11-10T06:59:42.661Z,2.33
2022-11-10T07:02:29.222Z,2.57
2022-11-10T07:05:17.113Z,2.40
2022-11-10T07:08:04.289Z,2.67
2022-11-10T07:10:53.979Z,2.70
2022-11-10T07:13:40.614Z,2.67
2022-11-10T07:16:27.113Z,2.53
2022-11-10T07:19:13.800Z,2.70
2022-11-10T07:22:03.483Z,2.37
2022-11-10T07:24:57.837Z,2.60
2022-11-10T07:27:47.034Z,2.97
2022-11-10T07:30:36.840Z,2.60
2022-11-10T07:33:23.321Z,2.70
2022-11-10T07:36:10.057Z,3.23
2022-11-10T07:39:01.109Z,3.40
2022-11-10T07:41:52.116Z,2.80
2022-11-10T07:44:39.074Z,3.03
2022-11-10T07:47:26.197Z,2.67
2022-11-10T07:50:12.999Z,2.70
2022-11-10T07:53:07.037Z,2.70
2022-11-10T07:55:55.161Z,2.70
2022-11-10T07:58:41.709Z,2.80
2022-11-10T08:01:28.095Z,2.63
2022-11-10T08:04:14.314Z,2.40
2022-11-10T08:07:00.744Z,2.63
2022-11-10T08:09:47.082Z,2.47
2022-11-10T08:12:35.109Z,2.60
2022-11-10T08:15:21.437Z,2.67
2022-11-10T08:18:10.608Z,2.77
2022-11-10T08:20:57.528Z,2.87
2022-11-10T08:23:44.076Z,3.00
2022-11-10T08:26:30.635Z,2.40
2022-11-10T08:29:18.537Z,2.53
2022-11-10T08:32:05.506Z,2.43
2022-11-10T08:34:52.309Z,2.57
2022-11-10T08:37:38.753Z,2.20
2022-11-10T08:40:27.635Z,2.20
2022-11-10T08:43:15.261Z,2.20
2022-11-10T08:46:03.149Z,2.17
2022-11-10T08:48:49.585Z,2.07
2022-11-10T08:51:39.063Z,2.10
2022-11-10T08:54:25.758Z,1.80
2022-11-10T08:57:12.300Z,1.90
2022-11-10T08:59:58.853Z,2.27
2022-11-10T09:02:46.615Z,2.00
2022-11-10T09:05:33.067Z,1.80
2022-11-10T09:08:20.496Z,2.00
2022-11-10T09:11:07.309Z,1.83
2022-11-10T09:13:53.630Z,1.93
2022-11-10T09:16:40.032Z,1.53
2022-11-10T09:19:27.760Z,1.90
2022-11-10T09:22:13.862Z,2.00
2022-11-10T09:25:00.399Z,1.60
2022-11-10T09:27:47.388Z,1.93
2022-11-10T09:30:33.756Z,1.97
2022-11-10T09:33:20.759Z,1.93
2022-11-10T09:36:09.420Z,2.00
2022-11-10T09:38:56.052Z,1.77
2022-11-10T09:41:44.853Z,1.80
2022-11-10T09:44:36.986Z,1.70
2022-11-10T09:47:55.695Z,1.60
2022-11-10T09:50:43.110Z,1.53
2022-11-10T09:53:38.061Z,2.00
2022-11-10T09:56:31.377Z,1.40
2022-11-10T09:59:24.533Z,1.90
2022-11-10T10:02:22.983Z,1.43
2022-11-10T10:05:47.366Z,1.77
2022-11-10T10:08:45.590Z,1.53
2022-11-10T10:11:44.841Z,1.57
2022-11-10T10:14:56.455Z,1.33
2022-11-10T10:17:54.267Z,1.73
2022-11-10T10:20:50.218Z,1.27
2022-11-10T10:24:07.620Z,1.60
2022-11-10T10:26:53.683Z,1.57
2022-11-10T10:29:42.181Z,1.57
2022-11-10T10:32:29.956Z,1.90
2022-11-10T10:35:19.675Z,1.87
2022-11-10T10:38:12.251Z,1.80
2022-11-10T10:41:08.430Z,1.60
2022-11-10T10:43:58.258Z,1.80
2022-11-10T10:46:47.640Z,1.70
2022-11-10T10:49:34.667Z,1.87
2022-11-10T10:52:25.019Z,1.33
2022-11-10T10:55:14.274Z,1.40
2022-11-10T10:58:06.659Z,1.33
2022-11-10T11:00:55.997Z,1.83
2022-11-10T11:03:44.315Z,1.27
2022-11-10T11:06:31.683Z,1.40
2022-11-10T11:09:20.849Z,1.83
2022-11-10T11:12:09.686Z,1.63
2022-11-10T11:15:14.085Z,1.60
2022-11-10T11:18:02.470Z,1.67
2022-11-10T11:21:00.565Z,1.70
2022-11-10T11:24:02.275Z,1.30
2022-11-10T11:26:58.077Z,1.37
2022-11-10T11:30:04.223Z,1.20
2022-11-10T11:33:05.685Z,1.70
2022-11-10T11:35:59.312Z,1.50
2022-11-10T11:38:56.666Z,1.20
2022-11-10T11:41:48.418Z,1.50
2022-11-10T11:44:48.963Z,1.33
2022-11-10T11:47:50.924Z,1.30
2022-11-10T11:50:44.690Z,1.47
2022-11-10T11:53:43.918Z,1.17
2022-11-10T11:56:34.119Z,1.40
2022-11-10T11:59:35.837Z,1.30
2022-11-10T12:02:36.329Z,1.33
2022-11-10T12:05:47.911Z,1.00
2022-11-10T12:08:40.789Z,1.13
2022-11-10T12:11:39.884Z,1.23
2022-11-10T12:14:38.427Z,1.30
2022-11-10T12:17:34.509Z,1.30
2022-11-10T12:20:28.655Z,1.90
2022-11-10T12:23:27.342Z,1.40
2022-11-10T12:26:22.438Z,1.00
2022-11-10T12:29:19.026Z,1.10
2022-11-10T12:32:14.407Z,1.23
2022-11-10T12:35:08.234Z,1.60
2022-11-10T12:37:59.892Z,1.20
2022-11-10T12:40:50.942Z,1.40
2022-11-10T12:43:41.759Z,1.67
2022-11-10T12:46:28.067Z,1.27
2022-11-10T12:49:19.444Z,2.90
2022-11-10T12:52:15.016Z,1.27
2022-11-10T12:55:02.195Z,1.33
2022-11-10T12:57:50.614Z,1.37
2022-11-10T13:00:42.868Z,2.20
2022-11-10T13:03:32.641Z,1.10
2022-11-10T13:06:30.346Z,1.33
2022-11-10T13:09:28.001Z,1.30
2022-11-10T13:12:20.295Z,1.37
2022-11-10T13:15:40.510Z,1.30
2022-11-10T13:19:01.916Z,1.40
2022-11-10T13:22:36.866Z,1.70
2022-11-10T13:25:54.480Z,1.37
2022-11-10T13:29:02.647Z,1.13
2022-11-10T13:31:54.403Z,1.60
2022-11-10T13:34:43.091Z,1.53
2022-11-10T13:37:51.417Z,1.40
2022-11-10T13:40:40.902Z,1.43
2022-11-10T13:43:28.629Z,1.20
2022-11-10T13:46:15.868Z,1.83
2022-11-10T13:49:30.074Z,1.27
2022-11-10T13:52:20.433Z,1.37
2022-11-10T13:55:35.971Z,1.40
2022-11-10T13:58:26.886Z,1.40
2022-11-10T14:01:30.524Z,1.00
2022-11-10T14:04:41.330Z,1.20
2022-11-10T14:07:36.229Z,1.40
2022-11-10T14:10:35.196Z,1.17
2022-11-10T14:13:27.367Z,1.47
2022-11-10T14:16:20.412Z,1.20
2022-11-10T14:19:21.057Z,1.60
2022-11-10T14:22:21.784Z,0.97
2022-11-10T14:25:20.354Z,1.47
2022-11-10T14:28:25.113Z,1.70
2022-11-10T14:31:20.394Z,1.40
2022-11-10T14:34:06.841Z,1.20
2022-11-10T14:36:55.500Z,1.00
2022-11-10T14:39:42.680Z,1.20
2022-11-10T14:42:32.383Z,1.27
2022-11-10T14:45:21.140Z,1.20
2022-11-10T14:48:18.507Z,1.20
2022-11-10T14:51:09.127Z,1.20
2022-11-10T14:53:57.431Z,1.10
2022-11-10T14:56:43.701Z,1.47
2022-11-10T14:59:31.802Z,1.87
2022-11-10T15:02:20.500Z,1.40
2022-11-10T15:05:07.518Z,1.30
2022-11-10T15:07:56.641Z,1.73
2022-11-10T15:10:46.901Z,1.47
2022-11-10T15:13:39.022Z,1.30
2022-11-10T15:16:28.443Z,2.40
2022-11-10T15:19:21.926Z,2.53
2022-11-10T15:22:18.480Z,2.33
2022-11-10T15:25:11.780Z,1.37
2022-11-10T15:28:01.682Z,1.30
2022-11-10T15:30:53.583Z,1.93
2022-11-10T15:33:48.171Z,1.50
2022-11-10T15:36:39.489Z,1.33
2022-11-10T15:39:27.200Z,1.60
2022-11-10T15:42:16.200Z,1.60
2022-11-10T15:45:02.535Z,1.40
2022-11-10T15:47:48.887Z,1.50
2022-11-10T15:50:37.077Z,1.50
2022-11-10T15:53:28.991Z,3.53
2022-11-10T15:56:17.135Z,14.63
2022-11-10T15:59:04.169Z,1.97
2022-11-10T16:01:52.101Z,1.83
2022-11-10T16:04:38.887Z,3.47
2022-11-10T16:07:26.727Z,2.50
2022-11-10T16:10:13.297Z,2.57
2022-11-10T16:13:02.395Z,2.00
2022-11-10T16:15:49.176Z,2.53
2022-11-10T16:18:38.864Z,6.50
2022-11-10T16:21:27.921Z,2.27
2022-11-10T16:24:15.480Z,1.80
2022-11-10T16:27:01.985Z,1.67
2022-11-10T16:29:48.414Z,2.20
2022-11-10T16:32:36.292Z,5.93
2022-11-10T16:35:22.996Z,2.40
2022-11-10T16:38:17.671Z,2.37
2022-11-10T16:41:05.601Z,2.07
2022-11-10T16:43:51.809Z,1.73
2022-11-10T16:46:40.093Z,2.23
2022-11-10T16:49:32.912Z,2.60
2022-11-10T16:52:21.274Z,2.60
2022-11-10T16:55:10.682Z,2.50
2022-11-10T16:57:58.493Z,2.30
2022-11-10T17:00:49.059Z,2.50
2022-11-10T17:03:38.147Z,2.83
2022-11-10T17:06:25.604Z,2.67
2022-11-10T17:09:18.232Z,2.70
2022-11-10T17:12:05.303Z,2.97
2022-11-10T17:14:53.096Z,2.60
2022-11-10T17:17:40.883Z,2.80
2022-11-10T17:20:33.495Z,3.33
2022-11-10T17:23:23.947Z,4.37
2022-11-10T17:26:13.267Z,4.70
2022-11-10T17:28:59.740Z,6.80
2022-11-10T17:31:47.891Z,7.93
2022-11-10T17:34:34.478Z,5.43
2022-11-10T17:37:21.209Z,5.95
2022-11-10T17:40:18.853Z,5.57
2022-11-10T17:43:15.144Z,6.47
2022-11-10T17:46:02.206Z,6.00
2022-11-10T17:48:50.176Z,6.57
2022-11-10T17:51:40.827Z,8.37
2022-11-10T17:54:29.848Z,8.10
2022-11-10T17:57:17.320Z,8.50
2022-11-10T18:00:29.951Z,7.40
2022-11-10T18:03:18.034Z,7.47
2022-11-10T18:06:08.360Z,8.00
2022-11-10T18:08:54.841Z,6.97
2022-11-10T18:11:41.356Z,7.17
2022-11-10T18:14:27.947Z,7.00
2022-11-10T18:17:14.348Z,6.87
2022-11-10T18:20:02.758Z,5.93
2022-11-10T18:22:50.653Z,5.63
2022-11-10T18:25:37.232Z,5.50
2022-11-10T18:28:24.076Z,5.03
2022-11-10T18:31:12.932Z,5.20
2022-11-10T18:33:59.531Z,5.43
2022-11-10T18:36:50.794Z,8.83
2022-11-10T18:39:38.716Z,9.50
2022-11-10T18:42:25.702Z,9.27
2022-11-10T18:45:13.065Z,10.67
2022-11-10T18:48:03.344Z,15.30
2022-11-10T18:50:52.349Z,11.37
2022-11-10T18:53:39.687Z,10.73
2022-11-10T18:56:27.834Z,9.23
2022-11-10T18:59:14.969Z,9.80
2022-11-10T19:02:02.778Z,8.70
2022-11-10T19:04:53.434Z,8.63
2022-11-10T19:07:40.144Z,7.67
2022-11-10T19:10:26.477Z,6.57
2022-11-10T19:13:15.314Z,6.60
2022-11-10T19:16:05.240Z,5.90
2022-11-10T19:18:51.986Z,6.33
2022-11-10T19:21:42.396Z,5.50
2022-11-10T19:24:32.210Z,5.50
2022-11-10T19:27:24.564Z,6.63
2022-11-10T19:30:13.975Z,7.70
2022-11-10T19:33:00.516Z,5.87
2022-11-10T19:35:47.217Z,5.50
2022-11-10T19:38:33.936Z,5.60
2022-11-10T19:41:22.551Z,5.50
2022-11-10T19:44:09.274Z,5.90
2022-11-10T19:46:57.413Z,5.43
2022-11-10T19:49:43.933Z,5.47
2022-11-10T19:52:30.980Z,5.80
2022-11-10T19:55:17.314Z,8.17
2022-11-10T19:58:03.969Z,8.53
2022-11-10T20:00:50.540Z,7.70
2022-11-10T20:03:39.276Z,7.17
2022-11-10T20:06:25.503Z,7.40
2022-11-10T20:09:12.150Z,7.93
2022-11-10T20:11:58.762Z,7.03
2022-11-10T20:14:45.164Z,6.37
2022-11-10T20:17:31.922Z,6.30
2022-11-10T20:20:19.671Z,6.60
2022-11-10T20:23:07.567Z,5.93
2022-11-10T20:26:03.057Z,6.00
2022-11-10T20:28:49.871Z,6.20
2022-11-10T20:31:38.490Z,5.70
2022-11-10T20:34:25.176Z,6.13
2022-11-10T20:37:12.795Z,5.90
2022-11-10T20:40:00.963Z,6.20
2022-11-10T20:42:47.726Z,5.53
2022-11-10T20:45:34.420Z,6.20
2022-11-10T20:48:21.082Z,5.40
2022-11-10T20:51:12.026Z,6.10
2022-11-10T20:54:02.602Z,6.00
2022-11-10T20:56:48.937Z,5.90
2022-11-10T20:59:35.289Z,5.90
2022-11-10T21:02:21.691Z,6.43
2022-11-10T21:05:09.142Z,6.20
2022-11-10T21:07:55.805Z,6.63
2022-11-10T21:10:52.490Z,6.37
2022-11-10T21:13:40.382Z,5.80
2022-11-10T21:16:27.328Z,5.73
2022-11-10T21:19:13.880Z,5.53
2022-11-10T21:22:00.222Z,6.23
2022-11-10T21:24:46.996Z,6.33
2022-11-10T21:27:34.775Z,5.87
2022-11-10T21:30:23.893Z,6.27
2022-11-10T21:33:10.673Z,5.97
2022-11-10T21:35:56.919Z,6.03
2022-11-10T21:38:46.742Z,5.73
2022-11-10T21:41:33.196Z,6.23
2022-11-10T21:44:21.093Z,7.40
2022-11-10T21:47:09.641Z,7.70
2022-11-10T21:49:56.178Z,7.33
2022-11-10T21:52:42.637Z,6.93
2022-11-10T21:55:28.909Z,7.20
2022-11-10T21:58:15.328Z,6.80
2022-11-10T22:01:04.291Z,9.13
2022-11-10T22:03:51.000Z,7.97
2022-11-10T22:06:55.044Z,7.90
2022-11-10T22:09:59.039Z,7.27
2022-11-10T22:13:02.848Z,7.50
2022-11-10T22:16:07.155Z,5.67
2022-11-10T22:18:54.992Z,5.70
2022-11-10T22:21:41.548Z,4.80
2022-11-10T22:24:28.442Z,4.87
2022-11-10T22:27:15.294Z,4.70
2022-11-10T22:30:01.931Z,5.30
2022-11-10T22:32:48.445Z,5.53
2022-11-10T22:35:45.201Z,5.70
2022-11-10T22:38:31.737Z,5.63
2022-11-10T22:41:36.426Z,5.73
2022-11-10T22:44:25.191Z,4.77
2022-11-10T22:47:11.685Z,4.63
2022-11-10T22:49:58.360Z,5.10
2022-11-10T22:52:46.404Z,4.97
2022-11-10T22:55:33.037Z,4.57
2022-11-10T22:58:19.450Z,4.67
2022-11-10T23:01:07.604Z,4.83
2022-11-10T23:03:54.611Z,4.53
2022-11-10T23:06:40.791Z,4.30
2022-11-10T23:09:28.479Z,4.57
2022-11-10T23:12:14.728Z,4.30
2022-11-10T23:15:04.092Z,4.90
2022-11-10T23:17:50.567Z,4.30
2022-11-10T23:20:37.497Z,4.63
2022-11-10T23:23:24.024Z,4.10
2022-11-10T23:26:15.802Z,4.43
2022-11-10T23:29:02.467Z,4.40
2022-11-10T23:31:49.123Z,4.13
2022-11-10T23:34:35.642Z,4.00
2022-11-10T23:37:22.036Z,4.20
2022-11-10T23:40:09.252Z,3.70
2022-11-10T23:42:56.802Z,3.60
2022-11-10T23:46:05.913Z,3.77
2022-11-10T23:48:51.708Z,3.43
2022-11-10T23:51:38.267Z,4.00
2022-11-10T23:54:24.825Z,3.80
2022-11-10T23:57:11.411Z,4.23
2022-11-10T23:59:59.382Z,3.33
